createdAt,value
2023-05-22T00:00:00.228Z,652.00
2023-05-22T00:01:00.258Z,643.00
2023-05-22T00:02:00.362Z,654.00
2023-05-22T00:03:00.631Z,655.00
2023-05-22T00:04:00.378Z,641.00
2023-05-22T00:05:00.493Z,648.00
2023-05-22T00:06:00.502Z,649.00
2023-05-22T00:07:00.503Z,648.00
2023-05-22T00:08:00.531Z,649.00
2023-05-22T00:09:00.564Z,649.00
2023-05-22T00:10:00.591Z,634.00
2023-05-22T00:11:00.655Z,647.00
2023-05-22T00:12:00.703Z,643.00
2023-05-22T00:13:00.744Z,641.00
2023-05-22T00:14:00.762Z,654.00
2023-05-22T00:15:00.772Z,658.00
2023-05-22T00:16:00.816Z,652.00
2023-05-22T00:17:00.898Z,651.00
2023-05-22T00:18:00.922Z,652.00
2023-05-22T00:19:01.020Z,650.00
2023-05-22T00:20:00.967Z,643.00
2023-05-22T00:21:00.990Z,646.00
2023-05-22T00:22:01.039Z,640.00
2023-05-22T00:23:01.055Z,643.00
2023-05-22T00:24:01.103Z,655.00
2023-05-22T00:25:02.104Z,649.00
2023-05-22T00:26:01.202Z,656.00
2023-05-22T00:27:01.258Z,651.00
2023-05-22T00:28:01.262Z,654.00
2023-05-22T00:29:01.300Z,653.00
2023-05-22T00:30:01.466Z,649.00
2023-05-22T00:31:01.374Z,649.00
2023-05-22T00:32:01.422Z,649.00
2023-05-22T00:33:01.469Z,645.00
2023-05-22T00:34:01.611Z,648.00
2023-05-22T00:35:01.526Z,657.00
2023-05-22T00:36:01.567Z,654.00
2023-05-22T00:37:01.609Z,658.00
2023-05-22T00:38:01.644Z,656.00
2023-05-22T00:39:01.654Z,662.00
2023-05-22T00:40:01.726Z,654.00
2023-05-22T00:41:01.800Z,654.00
2023-05-22T00:42:01.821Z,651.00
2023-05-22T00:43:01.890Z,654.00
2023-05-22T00:44:01.871Z,659.00
2023-05-22T00:45:01.969Z,658.00
2023-05-22T00:46:01.990Z,661.00
2023-05-22T00:47:02.126Z,654.00
2023-05-22T00:48:02.106Z,652.00
2023-05-22T00:49:02.108Z,654.00
2023-05-22T00:50:02.161Z,655.00
2023-05-22T00:51:02.180Z,673.00
2023-05-22T00:52:02.239Z,658.00
2023-05-22T00:53:02.304Z,658.00
2023-05-22T00:54:02.296Z,659.00
2023-05-22T00:55:02.345Z,657.00
2023-05-22T00:56:02.391Z,653.00
2023-05-22T00:57:02.606Z,656.00
2023-05-22T00:58:02.452Z,657.00
2023-05-22T00:59:02.501Z,660.00
2023-05-22T01:00:02.585Z,660.00
2023-05-22T01:01:02.595Z,656.00
2023-05-22T01:02:02.803Z,651.00
2023-05-22T01:03:02.815Z,650.00
2023-05-22T01:04:02.777Z,650.00
2023-05-22T01:05:02.788Z,656.00
2023-05-22T01:06:02.797Z,660.00
2023-05-22T01:07:02.892Z,660.00
2023-05-22T01:08:02.867Z,650.00
2023-05-22T01:09:02.965Z,653.00
2023-05-22T01:10:02.982Z,643.00
2023-05-22T01:11:03.033Z,645.00
2023-05-22T01:12:03.109Z,652.00
2023-05-22T01:13:03.123Z,650.00
2023-05-22T01:14:03.150Z,647.00
2023-05-22T01:15:03.243Z,638.00
2023-05-22T01:16:03.305Z,638.00
2023-05-22T01:17:03.324Z,637.00
2023-05-22T01:18:03.469Z,635.00
2023-05-22T01:19:03.426Z,631.00
2023-05-22T01:20:03.470Z,636.00
2023-05-22T01:21:03.515Z,640.00
2023-05-22T01:22:03.552Z,642.00
2023-05-22T01:23:03.562Z,638.00
2023-05-22T01:24:03.633Z,632.00
2023-05-22T01:25:03.666Z,622.00
2023-05-22T01:26:03.731Z,619.00
2023-05-22T01:27:03.761Z,625.00
2023-05-22T01:28:03.799Z,620.00
2023-05-22T01:29:03.882Z,636.00
2023-05-22T01:30:03.913Z,638.00
2023-05-22T01:31:03.976Z,629.00
2023-05-22T01:32:04.074Z,636.00
2023-05-22T01:33:04.141Z,637.00
2023-05-22T01:34:04.213Z,622.00
2023-05-22T01:35:04.156Z,619.00
2023-05-22T01:36:04.199Z,632.00
2023-05-22T01:37:04.256Z,635.00
2023-05-22T01:38:04.309Z,624.00
2023-05-22T01:39:04.400Z,621.00
2023-05-22T01:40:04.440Z,611.00
2023-05-22T01:41:04.472Z,614.00
2023-05-22T01:42:04.649Z,632.00
2023-05-22T01:43:04.584Z,640.00
2023-05-22T01:44:04.665Z,627.00
2023-05-22T01:45:04.734Z,620.00
2023-05-22T01:46:04.831Z,608.00
2023-05-22T01:47:04.808Z,614.00
2023-05-22T01:48:04.931Z,607.00
2023-05-22T01:49:04.933Z,604.00
2023-05-22T01:50:04.952Z,610.00
2023-05-22T01:51:04.984Z,609.00
2023-05-22T01:52:05.071Z,609.00
2023-05-22T01:53:05.107Z,605.00
2023-05-22T01:54:05.177Z,598.00
2023-05-22T01:55:05.230Z,603.00
2023-05-22T01:56:05.284Z,600.00
2023-05-22T01:57:05.362Z,594.00
2023-05-22T01:58:05.379Z,600.00
2023-05-22T01:59:05.415Z,599.00
2023-05-22T02:00:05.496Z,603.00
2023-05-22T02:01:05.555Z,597.00
2023-05-22T02:02:05.715Z,592.00
2023-05-22T02:03:05.749Z,599.00
2023-05-22T02:04:05.708Z,591.00
2023-05-22T02:05:05.787Z,596.00
2023-05-22T02:06:05.820Z,596.00
2023-05-22T02:07:05.900Z,594.00
2023-05-22T02:08:05.901Z,595.00
2023-05-22T02:09:05.970Z,593.00
2023-05-22T02:10:06.020Z,593.00
2023-05-22T02:11:06.056Z,594.00
2023-05-22T02:12:06.173Z,598.00
2023-05-22T02:13:06.205Z,600.00
2023-05-22T02:14:06.212Z,592.00
2023-05-22T02:15:06.292Z,604.00
2023-05-22T02:16:06.437Z,598.00
2023-05-22T02:17:06.445Z,597.00
2023-05-22T02:18:06.519Z,595.00
2023-05-22T02:19:06.793Z,600.00
2023-05-22T02:20:06.560Z,597.00
2023-05-22T02:21:06.643Z,585.00
2023-05-22T02:22:06.675Z,590.00
2023-05-22T02:23:06.744Z,589.00
2023-05-22T02:24:06.792Z,592.00
2023-05-22T02:25:06.847Z,590.00
2023-05-22T02:26:06.917Z,595.00
2023-05-22T02:27:06.972Z,595.00
2023-05-22T02:28:07.037Z,604.00
2023-05-22T02:29:07.064Z,597.00
2023-05-22T02:30:07.139Z,599.00
2023-05-22T02:31:07.269Z,598.00
2023-05-22T02:32:07.268Z,594.00
2023-05-22T02:33:07.336Z,598.00
2023-05-22T02:34:07.373Z,594.00
2023-05-22T02:35:07.426Z,588.00
2023-05-22T02:36:07.459Z,586.00
2023-05-22T02:37:07.551Z,592.00
2023-05-22T02:38:07.623Z,590.00
2023-05-22T02:39:07.655Z,597.00
2023-05-22T02:40:07.705Z,590.00
2023-05-22T02:41:07.784Z,592.00
2023-05-22T02:42:07.864Z,592.00
2023-05-22T02:43:07.956Z,591.00
2023-05-22T02:44:08.013Z,592.00
2023-05-22T02:45:08.031Z,588.00
2023-05-22T02:46:08.082Z,586.00
2023-05-22T02:47:08.172Z,588.00
2023-05-22T02:48:08.252Z,590.00
2023-05-22T02:49:08.274Z,588.00
2023-05-22T02:50:08.350Z,583.00
2023-05-22T02:51:08.412Z,585.00
2023-05-22T02:52:08.463Z,584.00
2023-05-22T02:53:08.500Z,587.00
2023-05-22T02:54:08.564Z,582.00
2023-05-22T02:55:08.585Z,587.00
2023-05-22T02:56:08.682Z,586.00
2023-05-22T02:57:08.782Z,588.00
2023-05-22T02:58:08.793Z,586.00
2023-05-22T02:59:08.867Z,585.00
2023-05-22T03:00:08.916Z,585.00
2023-05-22T03:01:08.994Z,588.00
2023-05-22T03:02:09.093Z,583.00
2023-05-22T03:03:09.202Z,581.00
2023-05-22T03:04:09.382Z,586.00
2023-05-22T03:05:09.185Z,584.00
2023-05-22T03:06:09.273Z,581.00
2023-05-22T03:07:09.334Z,577.00
2023-05-22T03:08:09.380Z,582.00
2023-05-22T03:09:09.451Z,575.00
2023-05-22T03:10:09.483Z,574.00
2023-05-22T03:11:09.510Z,570.00
2023-05-22T03:12:09.582Z,569.00
2023-05-22T03:13:09.656Z,570.00
2023-05-22T03:14:09.665Z,570.00
2023-05-22T03:15:09.755Z,572.00
2023-05-22T03:16:09.840Z,569.00
2023-05-22T03:17:09.891Z,576.00
2023-05-22T03:18:09.973Z,572.00
2023-05-22T03:19:10.047Z,573.00
2023-05-22T03:20:10.072Z,567.00
2023-05-22T03:21:10.096Z,569.00
2023-05-22T03:22:10.168Z,570.00
2023-05-22T03:23:10.230Z,566.00
2023-05-22T03:24:10.287Z,574.00
2023-05-22T03:25:10.348Z,572.00
2023-05-22T03:26:10.399Z,577.00
2023-05-22T03:27:10.444Z,569.00
2023-05-22T03:28:10.517Z,573.00
2023-05-22T03:29:10.646Z,571.00
2023-05-22T03:30:10.654Z,572.00
2023-05-22T03:31:10.774Z,577.00
2023-05-22T03:32:10.760Z,567.00
2023-05-22T03:33:10.903Z,579.00
2023-05-22T03:34:11.061Z,576.00
2023-05-22T03:35:10.976Z,574.00
2023-05-22T03:36:11.028Z,575.00
2023-05-22T03:37:11.188Z,579.00
2023-05-22T03:38:11.142Z,574.00
2023-05-22T03:39:11.193Z,585.00
2023-05-22T03:40:11.272Z,576.00
2023-05-22T03:41:11.330Z,581.00
2023-05-22T03:42:11.391Z,584.00
2023-05-22T03:43:11.391Z,584.00
2023-05-22T03:44:11.499Z,582.00
2023-05-22T03:45:11.529Z,575.00
2023-05-22T03:46:11.615Z,582.00
2023-05-22T03:47:11.694Z,583.00
2023-05-22T03:48:11.739Z,577.00
2023-05-22T03:49:11.813Z,582.00
2023-05-22T03:50:11.863Z,584.00
2023-05-22T03:51:11.940Z,586.00
2023-05-22T03:52:11.992Z,575.00
2023-05-22T03:53:12.017Z,583.00
2023-05-22T03:54:12.087Z,580.00
2023-05-22T03:55:12.186Z,586.00
2023-05-22T03:56:12.225Z,583.00
2023-05-22T03:57:12.311Z,582.00
2023-05-22T03:58:12.317Z,579.00
2023-05-22T03:59:12.404Z,577.00
2023-05-22T04:00:12.454Z,579.00
2023-05-22T04:01:12.530Z,578.00
2023-05-22T04:02:12.617Z,583.00
2023-05-22T04:03:12.793Z,576.00
2023-05-22T04:04:12.718Z,577.00
2023-05-22T04:05:12.819Z,576.00
2023-05-22T04:06:12.829Z,570.00
2023-05-22T04:07:12.881Z,576.00
2023-05-22T04:08:12.953Z,575.00
2023-05-22T04:09:13.019Z,580.00
2023-05-22T04:10:13.080Z,572.00
2023-05-22T04:11:13.126Z,571.00
2023-05-22T04:12:13.655Z,573.00
2023-05-22T04:13:13.245Z,571.00
2023-05-22T04:14:13.310Z,576.00
2023-05-22T04:15:13.408Z,574.00
2023-05-22T04:16:13.479Z,568.00
2023-05-22T04:17:13.518Z,571.00
2023-05-22T04:18:13.581Z,568.00
2023-05-22T04:19:13.716Z,570.00
2023-05-22T04:20:13.678Z,571.00
2023-05-22T04:21:13.752Z,571.00
2023-05-22T04:22:13.846Z,571.00
2023-05-22T04:23:13.889Z,571.00
2023-05-22T04:24:13.948Z,572.00
2023-05-22T04:25:14.031Z,567.00
2023-05-22T04:26:14.040Z,571.00
2023-05-22T04:27:14.116Z,574.00
2023-05-22T04:28:14.151Z,572.00
2023-05-22T04:29:14.309Z,573.00
2023-05-22T04:30:14.329Z,574.00
2023-05-22T04:31:14.394Z,575.00
2023-05-22T04:32:14.413Z,573.00
2023-05-22T04:33:14.621Z,575.00
2023-05-22T04:34:14.558Z,572.00
2023-05-22T04:35:14.627Z,563.00
2023-05-22T04:36:14.655Z,569.00
2023-05-22T04:37:14.744Z,573.00
2023-05-22T04:38:14.771Z,571.00
2023-05-22T04:39:14.866Z,564.00
2023-05-22T04:40:14.891Z,561.00
2023-05-22T04:41:14.933Z,559.00
2023-05-22T04:42:15.189Z,569.00
2023-05-22T04:43:15.078Z,568.00
2023-05-22T04:44:15.113Z,571.00
2023-05-22T04:45:15.189Z,567.00
2023-05-22T04:46:15.315Z,566.00
2023-05-22T04:47:15.282Z,563.00
2023-05-22T04:48:15.346Z,571.00
2023-05-22T04:49:15.403Z,569.00
2023-05-22T04:50:15.439Z,563.00
2023-05-22T04:51:15.473Z,563.00
2023-05-22T04:52:15.558Z,560.00
2023-05-22T04:53:15.591Z,587.00
2023-05-22T04:54:15.634Z,586.00
2023-05-22T04:55:15.706Z,578.00
2023-05-22T04:56:24.318Z,573.00
2023-05-22T04:57:16.749Z,567.00
2023-05-22T04:58:16.689Z,539.00
2023-05-22T04:59:15.716Z,534.00
2023-05-22T05:00:15.747Z,567.00
2023-05-22T05:01:15.800Z,629.00
2023-05-22T05:02:15.703Z,659.00
2023-05-22T05:03:15.854Z,637.00
2023-05-22T05:04:15.707Z,600.00
2023-05-22T05:05:15.680Z,617.00
2023-05-22T05:06:15.765Z,662.00
2023-05-22T05:07:15.797Z,736.00
2023-05-22T05:08:15.876Z,740.00
2023-05-22T05:09:15.898Z,651.00
2023-05-22T05:10:15.982Z,645.00
2023-05-22T05:11:16.027Z,770.00
2023-05-22T05:12:16.109Z,687.00
2023-05-22T05:13:16.142Z,696.00
2023-05-22T05:14:16.271Z,776.00
2023-05-22T05:15:16.235Z,829.00
2023-05-22T05:16:16.357Z,846.00
2023-05-22T05:17:16.682Z,877.00
2023-05-22T05:18:16.480Z,864.00
2023-05-22T05:19:16.483Z,860.00
2023-05-22T05:20:16.544Z,895.00
2023-05-22T05:21:16.608Z,869.00
2023-05-22T05:22:16.659Z,882.00
2023-05-22T05:23:16.724Z,900.00
2023-05-22T05:24:16.801Z,853.00
2023-05-22T05:25:16.853Z,840.00
2023-05-22T05:26:16.894Z,843.00
2023-05-22T05:27:16.971Z,816.00
2023-05-22T05:28:16.983Z,802.00
2023-05-22T05:29:17.031Z,772.00
2023-05-22T05:30:19.560Z,740.00
2023-05-22T05:31:17.097Z,739.00
2023-05-22T05:32:17.209Z,702.00
2023-05-22T05:33:17.069Z,706.00
2023-05-22T05:34:17.034Z,689.00
2023-05-22T05:35:17.081Z,660.00
2023-05-22T05:36:17.049Z,650.00
2023-05-22T05:37:17.048Z,649.00
2023-05-22T05:38:17.068Z,634.00
2023-05-22T05:39:17.037Z,622.00
2023-05-22T05:40:17.057Z,612.00
2023-05-22T05:41:17.023Z,607.00
2023-05-22T05:42:17.025Z,593.00
2023-05-22T05:43:17.017Z,580.00
2023-05-22T05:44:17.033Z,579.00
2023-05-22T05:45:16.988Z,576.00
2023-05-22T05:46:16.996Z,587.00
2023-05-22T05:47:16.963Z,574.00
2023-05-22T05:48:16.975Z,584.00
2023-05-22T05:49:16.931Z,564.00
2023-05-22T05:50:16.940Z,551.00
2023-05-22T05:51:16.941Z,561.00
2023-05-22T05:52:16.936Z,590.00
2023-05-22T05:53:16.975Z,593.00
2023-05-22T05:54:16.908Z,599.00
2023-05-22T05:55:16.942Z,600.00
2023-05-22T05:56:16.915Z,632.00
2023-05-22T05:57:16.909Z,610.00
2023-05-22T05:58:16.904Z,617.00
2023-05-22T05:59:16.865Z,611.00
2023-05-22T06:00:16.919Z,610.00
2023-05-22T06:01:16.863Z,593.00
2023-05-22T06:02:16.901Z,604.00
2023-05-22T06:03:16.954Z,594.00
2023-05-22T06:04:16.850Z,591.00
2023-05-22T06:05:16.854Z,588.00
2023-05-22T06:06:16.828Z,572.00
2023-05-22T06:07:16.873Z,590.00
2023-05-22T06:08:16.885Z,596.00
2023-05-22T06:09:16.826Z,562.00
2023-05-22T06:10:16.829Z,565.00
2023-05-22T06:11:16.799Z,568.00
2023-05-22T06:12:16.802Z,547.00
2023-05-22T06:13:16.759Z,543.00
2023-05-22T06:14:16.766Z,524.00
2023-05-22T06:15:16.798Z,514.00
2023-05-22T06:16:16.822Z,503.00
2023-05-22T06:17:16.842Z,502.00
2023-05-22T06:18:16.895Z,510.00
2023-05-22T06:19:16.746Z,514.00
2023-05-22T06:20:16.746Z,517.00
2023-05-22T06:21:16.727Z,511.00
2023-05-22T06:22:16.737Z,505.00
2023-05-22T06:23:16.749Z,502.00
2023-05-22T06:24:16.780Z,500.00
2023-05-22T06:25:16.818Z,500.00
2023-05-22T06:26:16.888Z,506.00
2023-05-22T06:27:16.845Z,504.00
2023-05-22T06:28:16.919Z,501.00
2023-05-22T06:29:16.919Z,505.00
2023-05-22T06:30:22.563Z,500.00
2023-05-22T06:31:17.958Z,501.00
2023-05-22T06:32:16.947Z,501.00
2023-05-22T06:33:16.961Z,501.00
2023-05-22T06:34:17.029Z,501.00
2023-05-22T06:35:16.889Z,496.00
2023-05-22T06:36:16.901Z,501.00
2023-05-22T06:37:16.912Z,508.00
2023-05-22T06:38:16.892Z,510.00
2023-05-22T06:39:16.889Z,520.00
2023-05-22T06:40:16.860Z,531.00
2023-05-22T06:41:16.872Z,532.00
2023-05-22T06:42:16.845Z,540.00
2023-05-22T06:43:16.895Z,548.00
2023-05-22T06:44:16.861Z,543.00
2023-05-22T06:45:16.867Z,541.00
2023-05-22T06:46:16.916Z,546.00
2023-05-22T06:47:16.838Z,553.00
2023-05-22T06:48:16.855Z,545.00
2023-05-22T06:49:16.874Z,547.00
2023-05-22T06:50:16.859Z,557.00
2023-05-22T06:51:16.908Z,607.00
2023-05-22T06:52:16.902Z,1617.00
2023-05-22T06:53:16.964Z,1778.00
2023-05-22T06:54:16.925Z,1988.00
2023-05-22T06:55:16.954Z,1855.00
2023-05-22T06:56:16.964Z,1511.00
2023-05-22T06:57:16.958Z,1547.00
2023-05-22T06:58:16.946Z,1637.00
2023-05-22T06:59:16.964Z,1652.00
2023-05-22T07:00:17.344Z,1698.00
2023-05-22T07:01:17.101Z,1791.00
2023-05-22T07:02:17.090Z,1834.00
2023-05-22T07:03:17.185Z,1839.00
2023-05-22T07:04:17.207Z,1842.00
2023-05-22T07:05:17.312Z,1876.00
2023-05-22T07:06:17.384Z,1885.00
2023-05-22T07:07:17.312Z,1885.00
2023-05-22T07:08:17.719Z,1875.00
2023-05-22T07:09:17.366Z,1878.00
2023-05-22T07:10:17.496Z,1877.00
2023-05-22T07:11:17.460Z,1872.00
2023-05-22T07:12:17.462Z,1851.00
2023-05-22T07:13:17.493Z,1847.00
2023-05-22T07:14:17.472Z,1827.00
2023-05-22T07:15:17.509Z,1838.00
2023-05-22T07:16:17.528Z,1828.00
2023-05-22T07:17:17.511Z,1837.00
2023-05-22T07:18:17.511Z,1800.00
2023-05-22T07:19:17.629Z,1783.00
2023-05-22T07:20:17.582Z,1799.00
2023-05-22T07:21:17.631Z,1781.00
2023-05-22T07:22:17.656Z,1785.00
2023-05-22T07:23:17.704Z,1753.00
2023-05-22T07:24:17.848Z,1735.00
2023-05-22T07:25:17.821Z,1728.00
2023-05-22T07:26:17.938Z,1720.00
2023-05-22T07:27:17.994Z,1698.00
2023-05-22T07:28:18.067Z,1676.00
2023-05-22T07:29:18.096Z,1676.00
2023-05-22T07:30:18.142Z,1698.00
2023-05-22T07:31:18.250Z,1650.00
2023-05-22T07:32:18.292Z,1657.00
2023-05-22T07:33:18.314Z,1658.00
2023-05-22T07:34:18.397Z,1633.00
2023-05-22T07:35:18.436Z,1648.00
2023-05-22T07:36:18.524Z,1632.00
2023-05-22T07:37:18.593Z,1610.00
2023-05-22T07:38:18.627Z,1598.00
2023-05-22T07:39:18.646Z,1591.00
2023-05-22T07:40:18.692Z,1552.00
2023-05-22T07:41:18.721Z,1568.00
2023-05-22T07:42:18.775Z,1598.00
2023-05-22T07:43:18.797Z,1581.00
2023-05-22T07:44:18.826Z,1589.00
2023-05-22T07:45:18.937Z,1541.00
2023-05-22T07:46:19.081Z,1479.00
2023-05-22T07:47:18.995Z,1482.00
2023-05-22T07:48:19.265Z,1516.00
2023-05-22T07:49:19.043Z,1661.00
2023-05-22T07:50:19.746Z,1776.00
2023-05-22T07:51:19.146Z,1652.00
2023-05-22T07:52:19.231Z,1799.00
2023-05-22T07:53:19.333Z,1638.00
2023-05-22T07:54:19.360Z,1676.00
2023-05-22T07:55:19.362Z,1742.00
2023-05-22T07:56:19.396Z,1771.00
2023-05-22T07:57:19.438Z,1761.00
2023-05-22T07:58:19.472Z,1571.00
2023-05-22T07:59:19.498Z,1566.00
2023-05-22T08:00:19.535Z,1462.00
2023-05-22T08:01:19.601Z,1204.00
2023-05-22T08:02:19.655Z,1424.00
2023-05-22T08:03:20.435Z,1468.00
2023-05-22T08:04:19.700Z,1406.00
2023-05-22T08:05:19.707Z,1363.00
2023-05-22T08:06:19.695Z,1293.00
2023-05-22T08:07:19.647Z,1221.00
2023-05-22T08:08:19.578Z,1200.00
2023-05-22T08:09:19.599Z,1183.00
2023-05-22T08:10:19.683Z,1321.00
2023-05-22T08:11:19.641Z,1379.00
2023-05-22T08:12:19.583Z,1261.00
2023-05-22T08:13:19.532Z,1384.00
2023-05-22T08:14:19.553Z,1447.00
2023-05-22T08:15:19.530Z,1477.00
2023-05-22T08:16:19.526Z,1489.00
2023-05-22T08:17:19.539Z,1464.00
2023-05-22T08:18:19.598Z,1343.00
2023-05-22T08:19:19.642Z,1320.00
2023-05-22T08:20:19.543Z,1310.00
2023-05-22T08:21:19.565Z,1332.00
2023-05-22T08:22:19.484Z,1369.00
2023-05-22T08:23:19.516Z,1322.00
2023-05-22T08:24:19.453Z,1338.00
2023-05-22T08:25:19.496Z,1365.00
2023-05-22T08:26:19.557Z,1349.00
2023-05-22T08:27:19.433Z,1335.00
2023-05-22T08:28:19.463Z,1333.00
2023-05-22T08:29:19.499Z,1264.00
2023-05-22T08:30:19.437Z,1177.00
2023-05-22T08:31:19.524Z,1169.00
2023-05-22T08:32:19.440Z,1150.00
2023-05-22T08:33:19.422Z,1168.00
2023-05-22T08:34:19.387Z,1143.00
2023-05-22T08:35:19.398Z,872.00
2023-05-22T08:36:19.399Z,802.00
2023-05-22T08:37:19.368Z,953.00
2023-05-22T08:38:19.378Z,1045.00
2023-05-22T08:39:19.462Z,1059.00
2023-05-22T08:40:19.364Z,824.00
2023-05-22T08:41:19.325Z,755.00
2023-05-22T08:42:19.344Z,958.00
2023-05-22T08:43:19.335Z,1025.00
2023-05-22T08:44:19.337Z,1018.00
2023-05-22T08:45:19.311Z,1006.00
2023-05-22T08:46:19.374Z,1050.00
2023-05-22T08:47:19.478Z,1081.00
2023-05-22T08:48:19.325Z,1097.00
2023-05-22T08:49:19.512Z,1208.00
2023-05-22T08:50:19.288Z,1263.00
2023-05-22T08:51:19.280Z,1234.00
2023-05-22T08:52:19.277Z,1197.00
2023-05-22T08:53:19.264Z,1252.00
2023-05-22T08:54:19.257Z,1190.00
2023-05-22T08:55:19.270Z,1279.00
2023-05-22T08:56:19.278Z,1351.00
2023-05-22T08:57:19.238Z,1392.00
2023-05-22T08:58:19.556Z,1483.00
2023-05-22T08:59:19.246Z,1601.00
2023-05-22T09:00:19.191Z,1550.00
2023-05-22T09:01:19.272Z,1579.00
2023-05-22T09:02:19.214Z,1349.00
2023-05-22T09:03:19.226Z,1262.00
2023-05-22T09:04:19.169Z,975.00
2023-05-22T09:05:19.164Z,1078.00
2023-05-22T09:06:19.160Z,1273.00
2023-05-22T09:07:19.200Z,1206.00
2023-05-22T09:08:20.892Z,1347.00
2023-05-22T09:09:19.128Z,1293.00
2023-05-22T09:10:19.109Z,1145.00
2023-05-22T09:11:19.175Z,803.00
2023-05-22T09:12:19.127Z,952.00
2023-05-22T09:13:19.141Z,1088.00
2023-05-22T09:14:19.150Z,1119.00
2023-05-22T09:15:19.088Z,1161.00
2023-05-22T09:16:19.146Z,1201.00
2023-05-22T09:17:19.109Z,1219.00
2023-05-22T09:18:19.078Z,661.00
2023-05-22T09:19:19.150Z,872.00
2023-05-22T09:20:19.145Z,761.00
2023-05-22T09:21:29.487Z,655.00
2023-05-22T09:22:21.820Z,658.00
2023-05-22T09:23:19.157Z,656.00
2023-05-22T09:24:19.095Z,664.00
2023-05-22T09:25:19.126Z,1084.00
2023-05-22T09:26:19.100Z,1634.00
2023-05-22T09:27:19.089Z,1896.00
2023-05-22T09:28:19.104Z,1953.00
2023-05-22T09:29:19.055Z,1643.00
2023-05-22T09:30:19.067Z,1550.00
2023-05-22T09:31:19.079Z,1326.00
2023-05-22T09:32:19.070Z,1353.00
2023-05-22T09:33:19.062Z,1203.00
2023-05-22T09:34:19.022Z,1278.00
2023-05-22T09:35:19.000Z,1282.00
2023-05-22T09:36:18.995Z,1076.00
2023-05-22T09:37:19.004Z,1152.00
2023-05-22T09:38:18.987Z,1191.00
2023-05-22T09:39:18.978Z,1099.00
2023-05-22T09:40:19.016Z,1079.00
2023-05-22T09:41:18.978Z,1096.00
2023-05-22T09:42:18.958Z,1141.00
2023-05-22T09:43:19.013Z,1089.00
2023-05-22T09:44:19.046Z,1104.00
2023-05-22T09:45:19.069Z,1142.00
2023-05-22T09:46:19.152Z,1154.00
2023-05-22T09:47:19.215Z,1102.00
2023-05-22T09:48:19.249Z,1058.00
2023-05-22T09:49:19.251Z,971.00
2023-05-22T09:50:19.261Z,811.00
2023-05-22T09:51:19.277Z,867.00
2023-05-22T09:52:19.313Z,938.00
2023-05-22T09:53:19.328Z,982.00
2023-05-22T09:54:19.309Z,889.00
2023-05-22T09:55:19.317Z,839.00
2023-05-22T09:56:27.516Z,826.00
2023-05-22T09:57:20.309Z,827.00
2023-05-22T09:58:19.303Z,828.00
2023-05-22T09:59:19.308Z,763.00
2023-05-22T10:00:19.276Z,738.00
2023-05-22T10:01:19.296Z,730.00
2023-05-22T10:02:19.499Z,699.00
2023-05-22T10:03:19.293Z,661.00
2023-05-22T10:04:19.362Z,653.00
2023-05-22T10:05:19.248Z,659.00
2023-05-22T10:06:19.283Z,657.00
2023-05-22T10:07:19.275Z,639.00
2023-05-22T10:08:19.252Z,630.00
2023-05-22T10:09:19.780Z,635.00
2023-05-22T10:10:19.221Z,605.00
2023-05-22T10:11:19.222Z,593.00
2023-05-22T10:12:19.230Z,586.00
2023-05-22T10:13:19.270Z,566.00
2023-05-22T10:14:19.358Z,575.00
2023-05-22T10:15:19.375Z,560.00
2023-05-22T10:16:19.466Z,563.00
2023-05-22T10:17:19.472Z,551.00
2023-05-22T10:18:19.610Z,553.00
2023-05-22T10:19:19.666Z,551.00
2023-05-22T10:20:19.609Z,547.00
2023-05-22T10:21:19.679Z,552.00
2023-05-22T10:22:19.704Z,553.00
2023-05-22T10:23:19.728Z,556.00
2023-05-22T10:24:19.797Z,559.00
2023-05-22T10:25:19.836Z,563.00
2023-05-22T10:26:19.880Z,549.00
2023-05-22T10:27:19.916Z,551.00
2023-05-22T10:28:19.984Z,557.00
2023-05-22T10:29:19.981Z,557.00
2023-05-22T10:30:20.068Z,561.00
2023-05-22T10:31:20.040Z,568.00
2023-05-22T10:32:20.088Z,565.00
2023-05-22T10:33:20.223Z,571.00
2023-05-22T10:34:20.239Z,549.00
2023-05-22T10:35:20.180Z,557.00
2023-05-22T10:36:20.273Z,558.00
2023-05-22T10:37:21.295Z,548.00
2023-05-22T10:38:20.317Z,552.00
2023-05-22T10:39:20.314Z,534.00
2023-05-22T10:40:20.447Z,547.00
2023-05-22T10:41:20.405Z,547.00
2023-05-22T10:42:20.454Z,509.00
2023-05-22T10:43:20.478Z,514.00
2023-05-22T10:44:20.545Z,527.00
2023-05-22T10:45:20.580Z,543.00
2023-05-22T10:46:20.694Z,568.00
2023-05-22T10:47:20.693Z,610.00
2023-05-22T10:48:20.705Z,659.00
2023-05-22T10:49:20.733Z,764.00
2023-05-22T10:50:20.819Z,857.00
2023-05-22T10:51:20.789Z,832.00
2023-05-22T10:52:20.814Z,900.00
2023-05-22T10:53:20.837Z,979.00
2023-05-22T10:54:20.788Z,966.00
2023-05-22T10:55:20.797Z,1032.00
2023-05-22T10:56:23.025Z,991.00
2023-05-22T10:57:20.784Z,992.00
2023-05-22T10:58:20.791Z,976.00
2023-05-22T10:59:20.778Z,1003.00
2023-05-22T11:00:20.777Z,1013.00
2023-05-22T11:01:20.785Z,1088.00
2023-05-22T11:02:20.889Z,1131.00
2023-05-22T11:03:20.745Z,1132.00
2023-05-22T11:04:20.823Z,1138.00
2023-05-22T11:05:20.759Z,1080.00
2023-05-22T11:06:20.810Z,1107.00
2023-05-22T11:07:20.729Z,1078.00
2023-05-22T11:08:20.700Z,1129.00
2023-05-22T11:09:20.720Z,1154.00
2023-05-22T11:10:20.745Z,1134.00
2023-05-22T11:11:20.681Z,1156.00
2023-05-22T11:12:20.782Z,1147.00
2023-05-22T11:13:20.675Z,1073.00
2023-05-22T11:14:20.718Z,1114.00
2023-05-22T11:15:20.657Z,1114.00
2023-05-22T11:16:20.678Z,1149.00
2023-05-22T11:17:20.646Z,1136.00
2023-05-22T11:18:20.710Z,1173.00
2023-05-22T11:19:23.726Z,1211.00
2023-05-22T11:20:20.696Z,1213.00
2023-05-22T11:21:20.723Z,1165.00
2023-05-22T11:22:20.779Z,1174.00
2023-05-22T11:23:20.719Z,1155.00
2023-05-22T11:24:20.691Z,1183.00
2023-05-22T11:25:20.686Z,1193.00
2023-05-22T11:26:20.660Z,1157.00
2023-05-22T11:27:20.693Z,1135.00
2023-05-22T11:28:20.646Z,1169.00
2023-05-22T11:29:20.678Z,1125.00
2023-05-22T11:30:20.658Z,1144.00
2023-05-22T11:31:20.709Z,1113.00
2023-05-22T11:32:20.635Z,1137.00
2023-05-22T11:33:20.693Z,1129.00
2023-05-22T11:34:20.618Z,1153.00
2023-05-22T11:35:20.628Z,1200.00
2023-05-22T11:36:20.638Z,1311.00
2023-05-22T11:37:20.589Z,1202.00
2023-05-22T11:38:20.705Z,1015.00
2023-05-22T11:39:20.691Z,777.00
2023-05-22T11:40:20.611Z,846.00
2023-05-22T11:41:20.577Z,754.00
2023-05-22T11:42:20.589Z,656.00
2023-05-22T11:43:20.838Z,662.00
2023-05-22T11:44:20.586Z,633.00
2023-05-22T11:45:20.574Z,633.00
2023-05-22T11:46:20.635Z,615.00
2023-05-22T11:47:20.536Z,592.00
2023-05-22T11:48:20.528Z,567.00
2023-05-22T11:49:20.515Z,540.00
2023-05-22T11:50:33.190Z,500.00
2023-05-22T11:51:21.506Z,489.00
2023-05-22T11:52:20.499Z,467.00
2023-05-22T11:53:20.855Z,454.00
2023-05-22T11:54:20.483Z,411.00
2023-05-22T11:55:20.492Z,400.00
2023-05-22T11:56:20.453Z,436.00
2023-05-22T11:57:20.505Z,469.00
2023-05-22T11:58:20.467Z,479.00
2023-05-22T11:59:20.476Z,500.00
2023-05-22T12:00:20.480Z,500.00
2023-05-22T12:01:20.413Z,500.00
2023-05-22T12:02:20.452Z,503.00
2023-05-22T12:03:20.509Z,500.00
2023-05-22T12:04:20.455Z,499.00
2023-05-22T12:05:20.423Z,499.00
2023-05-22T12:06:20.403Z,505.00
2023-05-22T12:07:20.393Z,495.00
2023-05-22T12:08:20.455Z,518.00
2023-05-22T12:09:20.388Z,501.00
2023-05-22T12:10:20.465Z,498.00
2023-05-22T12:11:20.366Z,501.00
2023-05-22T12:12:22.323Z,500.00
2023-05-22T12:13:20.449Z,511.00
2023-05-22T12:14:20.518Z,506.00
2023-05-22T12:15:20.539Z,516.00
2023-05-22T12:16:20.651Z,517.00
2023-05-22T12:17:20.594Z,507.00
2023-05-22T12:18:20.644Z,496.00
2023-05-22T12:19:20.699Z,499.00
2023-05-22T12:20:20.727Z,508.00
2023-05-22T12:21:20.775Z,506.00
2023-05-22T12:22:22.564Z,502.00